createdAt,value
2023-05-01T00:00:37.812Z,12.15
2023-05-01T00:03:04.849Z,13.82
2023-05-01T00:05:31.832Z,11.63
2023-05-01T00:07:58.642Z,12.52
2023-05-01T00:10:25.609Z,14.00
2023-05-01T00:12:52.436Z,13.27
2023-05-01T00:15:19.191Z,11.63
2023-05-01T00:17:46.161Z,12.77
2023-05-01T00:20:13.831Z,12.10
2023-05-01T00:22:40.596Z,13.95
2023-05-01T00:25:08.018Z,13.23
2023-05-01T00:27:34.869Z,11.95
2023-05-01T00:30:01.759Z,10.82
2023-05-01T00:32:29.444Z,15.18
2023-05-01T00:34:57.727Z,14.93
2023-05-01T00:37:24.607Z,15.10
2023-05-01T00:39:51.417Z,13.27
2023-05-01T00:42:18.866Z,14.57
2023-05-01T00:44:46.155Z,15.20
2023-05-01T00:47:13.490Z,13.68
2023-05-01T00:49:42.777Z,13.82
2023-05-01T00:52:13.188Z,12.88
2023-05-01T00:54:40.583Z,11.57
2023-05-01T00:57:09.496Z,9.77
2023-05-01T00:59:37.136Z,9.23
2023-05-01T01:02:03.870Z,10.02
2023-05-01T01:04:32.256Z,10.43
2023-05-01T01:07:09.589Z,10.48
2023-05-01T01:09:58.098Z,10.98
2023-05-01T01:12:27.760Z,10.82
2023-05-01T01:15:27.631Z,13.00
2023-05-01T01:18:12.600Z,12.13
2023-05-01T01:20:59.602Z,12.15
2023-05-01T01:23:41.987Z,9.77
2023-05-01T01:26:18.052Z,12.15
2023-05-01T01:29:14.045Z,11.93
2023-05-01T01:32:31.556Z,10.65
2023-05-01T01:35:15.568Z,9.00
2023-05-01T01:38:17.299Z,8.43
2023-05-01T01:41:07.396Z,9.38
2023-05-01T01:43:53.831Z,9.02
2023-05-01T01:46:23.408Z,8.32
2023-05-01T01:48:51.517Z,9.63
2023-05-01T01:51:22.237Z,8.07
2023-05-01T01:53:56.953Z,11.10
2023-05-01T01:56:26.350Z,9.93
2023-05-01T01:58:54.166Z,9.07
2023-05-01T02:01:23.161Z,10.50
2023-05-01T02:03:51.098Z,9.70
2023-05-01T02:06:18.041Z,10.10
2023-05-01T02:08:48.796Z,9.77
2023-05-01T02:11:19.586Z,8.50
2023-05-01T02:13:47.634Z,10.15
2023-05-01T02:16:16.224Z,9.95
2023-05-01T02:18:45.423Z,10.05
2023-05-01T02:21:13.192Z,11.32
2023-05-01T02:23:40.443Z,9.60
2023-05-01T02:26:10.898Z,12.02
2023-05-01T02:28:41.469Z,10.07
2023-05-01T02:31:09.123Z,10.10
2023-05-01T02:33:35.880Z,11.30
2023-05-01T02:36:03.388Z,10.27
2023-05-01T02:38:30.375Z,10.38
2023-05-01T02:40:58.413Z,12.00
2023-05-01T02:43:28.701Z,9.73
2023-05-01T02:45:59.012Z,10.07
2023-05-01T02:48:28.139Z,10.75
2023-05-01T02:50:57.067Z,11.73
2023-05-01T02:53:23.919Z,9.90
2023-05-01T02:55:55.591Z,12.07
2023-05-01T02:58:22.462Z,11.52
2023-05-01T03:00:49.849Z,12.95
2023-05-01T03:03:17.341Z,14.68
2023-05-01T03:05:44.200Z,12.68
2023-05-01T03:08:11.547Z,16.30
2023-05-01T03:10:44.529Z,13.20
2023-05-01T03:13:12.218Z,13.07
2023-05-01T03:15:39.778Z,14.63
2023-05-01T03:18:07.004Z,14.60
2023-05-01T03:20:34.137Z,13.00
2023-05-01T03:23:01.554Z,13.40
2023-05-01T03:25:29.150Z,11.10
2023-05-01T03:27:55.895Z,13.85
2023-05-01T03:30:23.145Z,11.55
2023-05-01T03:32:51.720Z,14.73
2023-05-01T03:35:23.914Z,14.90
2023-05-01T03:37:50.964Z,13.15
2023-05-01T03:40:37.679Z,11.82
2023-05-01T03:43:36.826Z,12.00
2023-05-01T03:46:09.035Z,12.77
2023-05-01T03:48:35.988Z,12.13
2023-05-01T03:51:02.850Z,9.65
2023-05-01T03:53:29.638Z,10.73
2023-05-01T03:55:57.454Z,11.55
2023-05-01T03:58:24.371Z,10.50
2023-05-01T04:00:51.200Z,8.88
2023-05-01T04:03:18.521Z,8.82
2023-05-01T04:05:47.560Z,9.45
2023-05-01T04:08:14.410Z,8.55
2023-05-01T04:10:41.174Z,10.10
2023-05-01T04:13:08.099Z,8.65
2023-05-01T04:15:35.260Z,10.27
2023-05-01T04:18:02.726Z,9.05
2023-05-01T04:20:29.609Z,8.25
2023-05-01T04:22:56.479Z,9.05
2023-05-01T04:25:24.037Z,8.50
2023-05-01T04:27:53.811Z,10.02
2023-05-01T04:30:20.674Z,6.35
2023-05-01T04:32:47.725Z,7.97
2023-05-01T04:35:14.707Z,7.70
2023-05-01T04:37:43.877Z,7.80
2023-05-01T04:40:11.869Z,9.30
2023-05-01T04:42:40.583Z,7.45
2023-05-01T04:45:10.659Z,8.40
2023-05-01T04:47:37.532Z,8.55
2023-05-01T04:50:05.511Z,9.10
2023-05-01T04:52:32.586Z,9.73
2023-05-01T04:55:02.170Z,8.27
2023-05-01T04:57:31.729Z,8.00
2023-05-01T05:00:01.207Z,10.65
2023-05-01T05:02:29.917Z,10.02
2023-05-01T05:04:56.693Z,14.13
2023-05-01T05:07:24.067Z,12.68
2023-05-01T05:10:09.724Z,12.95
2023-05-01T05:12:36.865Z,18.73
2023-05-01T05:15:04.113Z,12.00
2023-05-01T05:17:31.254Z,10.35
2023-05-01T05:19:58.348Z,8.90
2023-05-01T05:22:26.079Z,9.38
2023-05-01T05:25:12.903Z,15.45
2023-05-01T05:27:39.678Z,16.80
2023-05-01T05:30:07.662Z,14.70
2023-05-01T05:32:35.726Z,11.52
2023-05-01T05:35:03.421Z,8.80
2023-05-01T05:37:30.207Z,10.35
2023-05-01T05:39:57.619Z,12.52
2023-05-01T05:42:24.856Z,10.07
2023-05-01T05:44:52.485Z,10.27
2023-05-01T05:47:19.308Z,10.05
2023-05-01T05:49:46.106Z,8.98
2023-05-01T05:52:12.871Z,6.97
2023-05-01T05:54:40.028Z,8.23
2023-05-01T05:57:07.040Z,7.53
2023-05-01T05:59:35.398Z,7.70
2023-05-01T06:02:02.597Z,6.75
2023-05-01T06:04:29.475Z,7.57
2023-05-01T06:06:57.764Z,6.22
2023-05-01T06:09:25.071Z,7.40
2023-05-01T06:11:51.978Z,9.27
2023-05-01T06:14:19.132Z,6.10
2023-05-01T06:16:46.248Z,6.88
2023-05-01T06:19:13.222Z,7.18
2023-05-01T06:21:41.190Z,6.30
2023-05-01T06:24:10.113Z,5.88
2023-05-01T06:26:48.320Z,6.50
2023-05-01T06:29:15.334Z,7.82
2023-05-01T06:31:42.551Z,9.27
2023-05-01T06:34:11.397Z,6.40
2023-05-01T06:36:58.916Z,6.38
2023-05-01T06:39:25.687Z,5.72
2023-05-01T06:41:52.876Z,8.25
2023-05-01T06:44:32.163Z,7.65
2023-05-01T06:47:01.782Z,5.45
2023-05-01T06:49:28.805Z,5.35
2023-05-01T06:51:55.559Z,4.57
2023-05-01T06:54:22.460Z,4.68
2023-05-01T06:56:49.248Z,5.38
2023-05-01T06:59:16.008Z,6.70
2023-05-01T07:01:42.833Z,5.47
2023-05-01T07:04:11.476Z,5.28
2023-05-01T07:06:38.672Z,4.78
2023-05-01T07:09:06.000Z,7.40
2023-05-01T07:11:33.710Z,5.88
2023-05-01T07:14:01.230Z,4.45
2023-05-01T07:16:28.101Z,3.75
2023-05-01T07:18:54.888Z,4.82
2023-05-01T07:21:21.673Z,4.80
2023-05-01T07:23:48.379Z,5.50
2023-05-01T07:26:15.170Z,3.45
2023-05-01T07:28:41.922Z,4.90
2023-05-01T07:31:11.610Z,5.78
2023-05-01T07:33:38.356Z,4.43
2023-05-01T07:36:05.201Z,4.70
2023-05-01T07:38:31.944Z,4.82
2023-05-01T07:40:58.673Z,4.65
2023-05-01T07:43:25.524Z,4.32
2023-05-01T07:46:00.508Z,6.35
2023-05-01T07:48:28.490Z,4.13
2023-05-01T07:50:55.683Z,6.82
2023-05-01T07:53:22.753Z,4.15
2023-05-01T07:55:49.843Z,5.13
2023-05-01T07:58:19.421Z,5.32
2023-05-01T08:00:46.271Z,4.57
2023-05-01T08:03:13.254Z,4.70
2023-05-01T08:05:44.189Z,4.15
2023-05-01T08:08:13.085Z,4.97
2023-05-01T08:10:39.878Z,3.88
2023-05-01T08:13:06.629Z,5.07
2023-05-01T08:15:33.478Z,6.50
2023-05-01T08:18:00.290Z,4.78
2023-05-01T08:20:27.222Z,4.53
2023-05-01T08:22:53.966Z,3.90
2023-05-01T08:25:20.716Z,5.63
2023-05-01T08:27:48.067Z,4.88
2023-05-01T08:30:14.956Z,3.78
2023-05-01T08:32:41.938Z,4.20
2023-05-01T08:35:08.820Z,5.40
2023-05-01T08:37:35.682Z,5.03
2023-05-01T08:40:08.318Z,5.28
2023-05-01T08:42:38.948Z,4.90
2023-05-01T08:45:10.038Z,6.07
2023-05-01T08:47:39.470Z,4.15
2023-05-01T08:50:13.349Z,7.60
2023-05-01T08:52:44.157Z,3.67
2023-05-01T08:55:13.713Z,3.00
2023-05-01T08:57:46.386Z,2.55
2023-05-01T09:00:21.448Z,3.95
2023-05-01T09:02:50.812Z,4.25
2023-05-01T09:05:21.006Z,4.43
2023-05-01T09:07:48.253Z,6.78
2023-05-01T09:10:20.168Z,4.45
2023-05-01T09:13:00.784Z,4.63
2023-05-01T09:15:30.024Z,3.25
2023-05-01T09:17:59.661Z,3.25
2023-05-01T09:20:29.067Z,4.00
2023-05-01T09:22:59.393Z,3.60
2023-05-01T09:25:26.315Z,3.72
2023-05-01T09:27:54.320Z,3.38
2023-05-01T09:30:36.755Z,4.63
2023-05-01T09:33:12.836Z,3.70
2023-05-01T09:35:51.832Z,2.78
2023-05-01T09:38:23.619Z,3.05
2023-05-01T09:40:50.933Z,3.70
2023-05-01T09:43:26.865Z,2.30
2023-05-01T09:46:09.363Z,2.17
2023-05-01T09:48:37.572Z,3.28
2023-05-01T09:51:33.228Z,3.22
2023-05-01T09:54:02.141Z,3.60
2023-05-01T09:56:33.971Z,3.55
2023-05-01T09:59:19.446Z,2.97
2023-05-01T10:01:50.136Z,2.97
2023-05-01T10:04:18.191Z,3.15
2023-05-01T10:06:45.226Z,3.92
2023-05-01T10:09:17.710Z,3.38
2023-05-01T10:11:53.667Z,2.50
2023-05-01T10:14:21.252Z,2.45
2023-05-01T10:16:49.570Z,3.17
2023-05-01T10:19:19.664Z,3.15
2023-05-01T10:21:46.612Z,2.35
2023-05-01T10:24:15.133Z,2.17
2023-05-01T10:26:43.506Z,2.33
2023-05-01T10:29:10.959Z,2.38
2023-05-01T10:31:39.330Z,2.75
2023-05-01T10:34:09.485Z,2.25
2023-05-01T10:36:45.963Z,3.03
2023-05-01T10:39:32.294Z,5.10
2023-05-01T10:41:59.205Z,3.80
2023-05-01T10:44:27.131Z,3.35
2023-05-01T10:46:54.864Z,3.30
2023-05-01T10:49:22.190Z,4.15
2023-05-01T10:51:58.500Z,4.40
2023-05-01T10:54:27.560Z,5.10
2023-05-01T10:56:56.667Z,4.32
2023-05-01T10:59:23.501Z,4.32
2023-05-01T11:01:53.906Z,3.92
2023-05-01T11:04:24.423Z,3.20
2023-05-01T11:07:07.515Z,3.30
2023-05-01T11:09:55.124Z,3.90
2023-05-01T11:12:46.968Z,3.35
2023-05-01T11:15:32.542Z,3.50
2023-05-01T11:18:03.864Z,2.92
2023-05-01T11:20:36.643Z,3.45
2023-05-01T11:23:03.595Z,4.13
2023-05-01T11:25:32.821Z,5.75
2023-05-01T11:28:03.876Z,4.05
2023-05-01T11:30:38.223Z,3.42
2023-05-01T11:33:05.792Z,2.95
2023-05-01T11:35:34.012Z,4.22
2023-05-01T11:38:01.288Z,3.38
2023-05-01T11:40:33.107Z,4.00
2023-05-01T11:43:07.444Z,2.40
2023-05-01T11:45:36.066Z,2.15
2023-05-01T11:48:04.548Z,3.40
2023-05-01T11:50:37.287Z,1.95
2023-05-01T11:53:12.050Z,1.88
2023-05-01T11:55:40.056Z,1.88
2023-05-01T11:58:07.093Z,2.00
2023-05-01T12:00:36.920Z,2.03
2023-05-01T12:03:08.371Z,1.92
2023-05-01T12:05:37.570Z,1.70
2023-05-01T12:08:18.499Z,2.45
2023-05-01T12:10:47.435Z,2.00
2023-05-01T12:13:15.267Z,1.67
2023-05-01T12:15:46.842Z,2.45
2023-05-01T12:18:15.397Z,1.92
2023-05-01T12:20:44.459Z,2.17
2023-05-01T12:23:13.794Z,2.50
2023-05-01T12:25:41.230Z,2.20
2023-05-01T12:28:10.345Z,2.33
2023-05-01T12:30:38.192Z,2.38
2023-05-01T12:33:16.454Z,1.80
2023-05-01T12:35:46.525Z,2.00
2023-05-01T12:38:17.423Z,2.17
2023-05-01T12:40:58.415Z,3.45
2023-05-01T12:43:36.033Z,2.58
2023-05-01T12:46:04.586Z,1.58
2023-05-01T12:48:34.182Z,1.45
2023-05-01T12:51:01.621Z,1.67
2023-05-01T12:53:29.555Z,1.83
2023-05-01T12:55:58.208Z,1.38
2023-05-01T12:58:38.202Z,1.45
2023-05-01T13:01:06.251Z,1.58
2023-05-01T13:03:34.163Z,2.20
2023-05-01T13:06:03.643Z,4.03
2023-05-01T13:08:32.148Z,2.33
2023-05-01T13:11:01.771Z,2.35
2023-05-01T13:13:31.641Z,2.80
2023-05-01T13:16:12.871Z,3.47
2023-05-01T13:18:51.306Z,2.50
2023-05-01T13:21:23.872Z,3.33
2023-05-01T13:23:57.781Z,2.97
2023-05-01T13:26:32.807Z,1.93
2023-05-01T13:29:01.651Z,2.00
2023-05-01T13:31:29.287Z,2.50
2023-05-01T13:33:58.438Z,2.28
2023-05-01T13:36:27.447Z,2.30
2023-05-01T13:38:56.890Z,2.00
2023-05-01T13:41:26.044Z,3.28
2023-05-01T13:43:54.796Z,2.00
2023-05-01T13:46:23.953Z,2.78
2023-05-01T13:48:50.982Z,2.53
2023-05-01T13:51:25.252Z,2.25
2023-05-01T13:53:53.692Z,3.60
2023-05-01T13:56:21.563Z,3.30
2023-05-01T13:58:48.697Z,4.03
2023-05-01T14:01:18.481Z,4.00
2023-05-01T14:03:45.417Z,3.30
2023-05-01T14:06:17.873Z,2.83
2023-05-01T14:08:46.935Z,4.00
2023-05-01T14:11:14.647Z,5.55
2023-05-01T14:13:43.395Z,4.03
2023-05-01T14:16:13.127Z,3.05
2023-05-01T14:18:47.298Z,3.72
2023-05-01T14:21:18.847Z,3.83
2023-05-01T14:23:45.743Z,3.55
2023-05-01T14:26:18.254Z,3.92
2023-05-01T14:28:46.384Z,3.97
2023-05-01T14:31:23.628Z,3.00
2023-05-01T14:33:59.243Z,3.70
2023-05-01T14:36:33.858Z,3.55
2023-05-01T14:39:02.896Z,3.00
2023-05-01T14:41:30.083Z,2.60
2023-05-01T14:43:57.262Z,2.92
2023-05-01T14:46:27.354Z,2.78
2023-05-01T14:48:54.603Z,4.65
2023-05-01T14:51:21.656Z,2.80
2023-05-01T14:53:48.534Z,3.28
2023-05-01T14:56:15.595Z,2.97
2023-05-01T14:58:42.389Z,3.67
2023-05-01T15:01:09.187Z,4.15
2023-05-01T15:03:40.940Z,2.92
2023-05-01T15:06:08.950Z,3.45
2023-05-01T15:08:38.086Z,4.10
2023-05-01T15:11:05.221Z,2.75
2023-05-01T15:13:32.085Z,2.40
2023-05-01T15:15:59.239Z,3.72
2023-05-01T15:18:26.360Z,2.45
2023-05-01T15:20:53.314Z,3.38
2023-05-01T15:23:20.401Z,2.60
2023-05-01T15:25:47.987Z,2.40
2023-05-01T15:28:14.993Z,2.58
2023-05-01T15:30:46.383Z,2.00
2023-05-01T15:33:16.214Z,4.05
2023-05-01T15:35:46.133Z,3.13
2023-05-01T15:38:12.961Z,2.90
2023-05-01T15:40:39.776Z,3.13
2023-05-01T15:43:06.685Z,2.90
2023-05-01T15:45:33.927Z,2.42
2023-05-01T15:48:01.122Z,2.53
2023-05-01T15:50:28.318Z,3.15
2023-05-01T15:52:55.126Z,2.30
2023-05-01T15:55:22.104Z,2.40
2023-05-01T15:57:49.026Z,2.30
2023-05-01T16:00:17.107Z,2.50
2023-05-01T16:02:44.645Z,2.40
2023-05-01T16:05:14.114Z,2.28
2023-05-01T16:07:41.092Z,3.45
2023-05-01T16:10:09.052Z,3.03
2023-05-01T16:12:35.953Z,2.83
2023-05-01T16:15:04.342Z,3.40
2023-05-01T16:17:33.495Z,3.50
2023-05-01T16:20:02.448Z,3.13
2023-05-01T16:22:29.568Z,3.53
2023-05-01T16:24:58.098Z,2.85
2023-05-01T16:27:24.920Z,3.25
2023-05-01T16:29:51.704Z,3.88
2023-05-01T16:32:18.963Z,4.72
2023-05-01T16:34:45.820Z,4.68
2023-05-01T16:37:15.043Z,3.65
2023-05-01T16:39:41.949Z,3.38
2023-05-01T16:42:12.466Z,2.78
2023-05-01T16:44:39.774Z,3.17
2023-05-01T16:47:06.737Z,4.65
2023-05-01T16:49:33.620Z,2.58
2023-05-01T16:52:01.422Z,2.83
2023-05-01T16:54:35.482Z,2.80
2023-05-01T16:57:03.437Z,2.88
2023-05-01T16:59:30.588Z,3.78
2023-05-01T17:01:57.480Z,2.70
2023-05-01T17:04:25.148Z,2.63
2023-05-01T17:06:52.205Z,3.20
2023-05-01T17:09:19.113Z,2.88
2023-05-01T17:11:56.891Z,3.30
2023-05-01T17:14:23.846Z,2.90
2023-05-01T17:16:50.910Z,2.45
2023-05-01T17:19:17.922Z,2.50
2023-05-01T17:21:44.867Z,2.72
2023-05-01T17:24:13.046Z,2.55
2023-05-01T17:26:39.918Z,2.45
2023-05-01T17:29:06.668Z,2.75
2023-05-01T17:31:33.566Z,2.80
2023-05-01T17:34:00.708Z,3.20
2023-05-01T17:36:29.071Z,3.97
2023-05-01T17:38:56.294Z,4.25
2023-05-01T17:41:24.761Z,4.55
2023-05-01T17:43:51.573Z,5.15
2023-05-01T17:46:18.603Z,5.30
2023-05-01T17:48:45.501Z,4.82
2023-05-01T17:51:14.048Z,4.55
2023-05-01T17:53:41.584Z,4.55
2023-05-01T17:56:08.978Z,3.72
2023-05-01T17:58:35.828Z,3.65
2023-05-01T18:01:04.710Z,3.72
2023-05-01T18:03:34.594Z,2.80
2023-05-01T18:06:02.664Z,3.42
2023-05-01T18:08:29.636Z,2.60
2023-05-01T18:10:56.592Z,3.15
2023-05-01T18:13:27.912Z,2.58
2023-05-01T18:15:55.843Z,4.30
2023-05-01T18:18:22.893Z,4.22
2023-05-01T18:20:49.814Z,3.58
2023-05-01T18:23:18.769Z,3.38
2023-05-01T18:25:46.294Z,4.20
2023-05-01T18:28:16.133Z,4.13
2023-05-01T18:30:43.029Z,3.63
2023-05-01T18:33:10.260Z,3.53
2023-05-01T18:35:39.877Z,2.65
2023-05-01T18:38:06.707Z,2.50
2023-05-01T18:40:33.453Z,2.40
2023-05-01T18:43:00.265Z,2.47
2023-05-01T18:45:27.127Z,2.60
2023-05-01T18:47:53.932Z,3.70
2023-05-01T18:50:21.929Z,2.60
2023-05-01T18:52:49.233Z,4.63
2023-05-01T18:55:16.540Z,2.78
2023-05-01T18:57:44.125Z,3.35
2023-05-01T19:00:14.294Z,2.72
2023-05-01T19:02:41.479Z,2.75
2023-05-01T19:05:09.031Z,2.95
2023-05-01T19:07:35.951Z,2.30
2023-05-01T19:10:03.096Z,2.60
2023-05-01T19:12:29.961Z,2.40
2023-05-01T19:14:56.722Z,2.03
2023-05-01T19:17:23.611Z,2.65
2023-05-01T19:19:50.439Z,3.65
2023-05-01T19:22:17.591Z,2.45
2023-05-01T19:24:44.430Z,2.45
2023-05-01T19:27:11.575Z,2.50
2023-05-01T19:29:39.664Z,2.40
2023-05-01T19:32:07.426Z,2.60
2023-05-01T19:34:34.363Z,2.55
2023-05-01T19:37:02.097Z,2.20
2023-05-01T19:39:29.322Z,2.67
2023-05-01T19:41:56.257Z,2.53
2023-05-01T19:44:23.051Z,2.55
2023-05-01T19:46:49.975Z,2.42
2023-05-01T19:49:25.390Z,2.13
2023-05-01T19:51:54.627Z,2.90
2023-05-01T19:54:22.325Z,2.30
2023-05-01T19:56:58.879Z,2.25
2023-05-01T19:59:32.877Z,2.60
2023-05-01T20:02:03.161Z,2.83
2023-05-01T20:07:24.402Z,2.47
2023-05-01T20:09:52.493Z,2.30
2023-05-01T20:12:19.252Z,2.78
2023-05-01T20:14:45.996Z,2.95
2023-05-01T20:17:12.771Z,2.83
2023-05-01T20:19:39.975Z,2.47
2023-05-01T20:22:07.083Z,3.40
2023-05-01T20:24:33.809Z,2.88
2023-05-01T20:27:00.620Z,2.90
2023-05-01T20:29:27.406Z,2.58
2023-05-01T20:31:58.213Z,2.83
2023-05-01T20:34:25.205Z,3.45
2023-05-01T20:36:52.155Z,3.28
2023-05-01T20:39:18.897Z,3.10
2023-05-01T20:41:45.662Z,3.05
2023-05-01T20:44:12.440Z,3.20
2023-05-01T20:46:41.016Z,3.28
2023-05-01T20:49:12.544Z,3.28
2023-05-01T20:51:41.159Z,3.60
2023-05-01T20:54:10.999Z,3.58
2023-05-01T20:56:38.399Z,3.50
2023-05-01T20:59:07.048Z,3.42
2023-05-01T21:01:33.892Z,3.58
2023-05-01T21:04:03.771Z,3.50
2023-05-01T21:06:32.261Z,3.10
2023-05-01T21:09:04.687Z,2.97
2023-05-01T21:11:31.608Z,3.00
2023-05-01T21:13:58.452Z,3.05
2023-05-01T21:16:28.041Z,3.45
2023-05-01T21:18:54.969Z,3.22
2023-05-01T21:21:21.942Z,4.45
2023-05-01T21:23:48.966Z,3.95
2023-05-01T21:26:16.281Z,3.90
2023-05-01T21:28:43.591Z,3.72
2023-05-01T21:31:12.935Z,3.55
2023-05-01T21:33:43.233Z,3.53
2023-05-01T21:36:10.937Z,4.47
2023-05-01T21:38:38.763Z,3.40
2023-05-01T21:41:05.827Z,3.53
2023-05-01T21:43:33.755Z,4.15
2023-05-01T21:46:00.617Z,3.70
2023-05-01T21:48:32.253Z,4.47
2023-05-01T21:51:00.596Z,4.03
2023-05-01T21:53:29.835Z,3.67
2023-05-01T21:55:56.741Z,3.70
2023-05-01T21:58:24.644Z,4.20
2023-05-01T22:00:51.905Z,4.15
2023-05-01T22:03:19.184Z,3.70
2023-05-01T22:05:46.205Z,4.25
2023-05-01T22:08:15.891Z,3.28
2023-05-01T22:10:43.002Z,3.85
2023-05-01T22:13:09.846Z,5.03
2023-05-01T22:15:39.455Z,3.55
2023-05-01T22:18:06.315Z,3.78
2023-05-01T22:20:33.163Z,3.85
2023-05-01T22:22:59.977Z,3.50
2023-05-01T22:25:26.791Z,3.70
2023-05-01T22:27:53.580Z,3.47
2023-05-01T22:30:20.314Z,3.88
2023-05-01T22:32:47.093Z,3.67
2023-05-01T22:35:13.843Z,3.80
2023-05-01T22:37:40.580Z,3.67
2023-05-01T22:40:08.308Z,4.97
2023-05-01T22:42:35.089Z,4.00
2023-05-01T22:45:01.837Z,4.30
2023-05-01T22:47:28.605Z,4.18
2023-05-01T22:49:55.406Z,3.65
2023-05-01T22:52:22.707Z,3.92
2023-05-01T22:54:52.441Z,4.00
2023-05-01T22:57:19.151Z,5.40
2023-05-01T22:59:45.889Z,4.30
2023-05-01T23:02:16.288Z,3.90
2023-05-01T23:04:43.960Z,4.28
2023-05-01T23:07:12.970Z,4.05
2023-05-01T23:09:39.757Z,4.72
2023-05-01T23:12:07.344Z,4.18
2023-05-01T23:14:36.669Z,4.18
2023-05-01T23:17:04.716Z,3.88
2023-05-01T23:19:31.584Z,3.95
2023-05-01T23:22:09.268Z,4.38
2023-05-01T23:24:44.682Z,4.53
2023-05-01T23:27:14.289Z,3.90
2023-05-01T23:29:42.010Z,5.32
2023-05-01T23:32:21.879Z,3.70
2023-05-01T23:34:48.906Z,3.50
2023-05-01T23:37:15.782Z,3.13
2023-05-01T23:39:42.562Z,3.20
2023-05-01T23:42:09.524Z,3.28
2023-05-01T23:44:36.363Z,3.25
2023-05-01T23:47:03.243Z,3.35
2023-05-01T23:49:30.250Z,3.13
2023-05-01T23:51:57.147Z,4.32
2023-05-01T23:54:23.965Z,4.65
2023-05-01T23:56:50.659Z,4.40
2023-05-01T23:59:17.407Z,4.10
